createdAt,value
2018-12-10T00:00:33.289Z,1.30
2018-12-10T00:03:07.020Z,0.90
2018-12-10T00:05:35.479Z,1.10
2018-12-10T00:08:03.974Z,0.87
2018-12-10T00:10:32.405Z,1.40
2018-12-10T00:13:00.914Z,1.47
2018-12-10T00:15:29.358Z,1.20
2018-12-10T00:17:57.860Z,1.53
2018-12-10T00:20:26.404Z,1.40
2018-12-10T00:22:54.838Z,1.50
2018-12-10T00:25:23.267Z,1.67
2018-12-10T00:27:52.384Z,1.57
2018-12-10T00:30:20.812Z,1.43
2018-12-10T00:32:49.237Z,1.10
2018-12-10T00:35:17.839Z,2.33
2018-12-10T00:37:46.297Z,1.93
2018-12-10T00:40:14.739Z,1.60
2018-12-10T00:42:43.204Z,1.63
2018-12-10T00:45:11.691Z,1.50
2018-12-10T00:47:40.141Z,1.53
2018-12-10T00:50:08.561Z,1.77
2018-12-10T00:52:37.061Z,2.40
2018-12-10T00:55:05.777Z,1.67
2018-12-10T00:57:34.262Z,1.90
2018-12-10T01:00:02.738Z,1.60
2018-12-10T01:02:31.183Z,2.07
2018-12-10T01:04:59.664Z,1.70
2018-12-10T01:07:28.091Z,2.17
2018-12-10T01:09:56.548Z,1.43
2018-12-10T01:12:25.000Z,2.10
2018-12-10T01:14:53.424Z,1.80
2018-12-10T01:17:21.968Z,1.97
2018-12-10T01:19:50.442Z,1.40
2018-12-10T01:22:18.983Z,1.37
2018-12-10T01:24:47.615Z,2.13
2018-12-10T01:27:16.087Z,1.13
2018-12-10T01:29:44.532Z,1.40
2018-12-10T01:32:13.078Z,2.00
2018-12-10T01:34:41.841Z,1.77
2018-12-10T01:37:10.261Z,1.70
2018-12-10T01:39:38.710Z,1.33
2018-12-10T01:42:07.177Z,2.03
2018-12-10T01:44:35.594Z,1.63
2018-12-10T01:47:04.058Z,1.40
2018-12-10T01:49:32.515Z,2.00
2018-12-10T01:52:01.078Z,0.97
2018-12-10T01:54:29.597Z,1.20
2018-12-10T01:56:57.998Z,1.23
2018-12-10T01:59:26.426Z,1.40
2018-12-10T02:01:54.920Z,1.80
2018-12-10T02:04:23.376Z,1.10
2018-12-10T02:06:51.854Z,1.30
2018-12-10T02:09:20.298Z,1.10
2018-12-10T02:11:48.726Z,1.80
2018-12-10T02:14:17.152Z,1.87
2018-12-10T02:16:45.613Z,1.70
2018-12-10T02:19:14.036Z,1.10
2018-12-10T02:21:42.486Z,1.90
2018-12-10T02:24:10.981Z,1.97
2018-12-10T02:26:39.445Z,1.73
2018-12-10T02:29:14.042Z,1.30
2018-12-10T02:31:43.409Z,1.40
2018-12-10T02:34:11.885Z,1.30
2018-12-10T02:36:40.347Z,2.03
2018-12-10T02:39:08.862Z,1.87
2018-12-10T02:41:37.317Z,1.57
2018-12-10T02:44:05.853Z,1.40
2018-12-10T02:46:34.345Z,1.40
2018-12-10T02:49:02.880Z,1.20
2018-12-10T02:51:31.327Z,1.57
2018-12-10T02:53:59.795Z,2.27
2018-12-10T02:56:28.279Z,1.77
2018-12-10T02:58:56.763Z,2.23
2018-12-10T03:01:25.212Z,1.70
2018-12-10T03:03:53.923Z,1.60
2018-12-10T03:06:22.405Z,1.67
2018-12-10T03:08:50.824Z,1.60
2018-12-10T03:11:19.304Z,2.20
2018-12-10T03:13:47.816Z,2.00
2018-12-10T03:16:16.294Z,2.47
2018-12-10T03:18:44.742Z,1.20
2018-12-10T03:21:13.199Z,2.03
2018-12-10T03:23:41.854Z,1.80
2018-12-10T03:26:10.260Z,1.83
2018-12-10T03:28:38.739Z,2.37
2018-12-10T03:31:07.191Z,1.80
2018-12-10T03:33:35.745Z,2.20
2018-12-10T03:36:04.208Z,1.97
2018-12-10T03:38:32.694Z,1.87
2018-12-10T03:41:01.140Z,1.87
2018-12-10T03:43:29.630Z,1.37
2018-12-10T03:45:58.157Z,2.17
2018-12-10T03:48:26.630Z,2.53
2018-12-10T03:50:55.091Z,1.60
2018-12-10T03:53:23.628Z,1.53
2018-12-10T03:55:52.067Z,2.07
2018-12-10T03:58:20.561Z,1.90
2018-12-10T04:00:49.085Z,2.30
2018-12-10T04:03:17.508Z,2.07
2018-12-10T04:05:46.018Z,1.63
2018-12-10T04:08:14.481Z,1.23
2018-12-10T04:10:42.892Z,1.30
2018-12-10T04:13:11.353Z,1.73
2018-12-10T04:15:39.869Z,1.30
2018-12-10T04:18:08.365Z,1.57
2018-12-10T04:20:36.867Z,1.93
2018-12-10T04:23:05.297Z,1.73
2018-12-10T04:25:33.771Z,2.23
2018-12-10T04:28:02.265Z,1.80
2018-12-10T04:30:30.742Z,1.80
2018-12-10T04:32:59.227Z,1.70
2018-12-10T04:35:27.731Z,1.20
2018-12-10T04:37:56.238Z,1.73
2018-12-10T04:40:24.662Z,2.00
2018-12-10T04:42:53.095Z,1.40
2018-12-10T04:45:21.512Z,1.23
2018-12-10T04:47:50.118Z,1.90
2018-12-10T04:50:18.617Z,1.20
2018-12-10T04:52:47.046Z,1.17
2018-12-10T04:55:15.474Z,1.97
2018-12-10T04:57:44.011Z,1.03
2018-12-10T05:00:12.508Z,2.57
2018-12-10T05:02:40.920Z,1.40
2018-12-10T05:05:09.374Z,1.80
2018-12-10T05:07:37.808Z,1.80
2018-12-10T05:10:06.298Z,1.40
2018-12-10T05:12:34.818Z,1.60
2018-12-10T05:15:03.339Z,1.67
2018-12-10T05:17:31.769Z,1.70
2018-12-10T05:20:00.248Z,1.70
2018-12-10T05:22:28.691Z,1.70
2018-12-10T05:24:57.120Z,1.63
2018-12-10T05:27:25.587Z,1.10
2018-12-10T05:29:54.025Z,1.77
2018-12-10T05:32:22.490Z,1.37
2018-12-10T05:34:50.952Z,1.50
2018-12-10T05:37:19.351Z,1.90
2018-12-10T05:39:47.815Z,1.20
2018-12-10T05:42:16.282Z,1.57
2018-12-10T05:44:44.720Z,1.70
2018-12-10T05:47:13.143Z,1.53
2018-12-10T05:49:41.646Z,1.57
2018-12-10T05:52:10.074Z,1.67
2018-12-10T05:54:38.661Z,1.50
2018-12-10T05:57:07.166Z,2.50
2018-12-10T05:59:35.604Z,1.70
2018-12-10T06:02:04.320Z,1.50
2018-12-10T06:04:32.798Z,1.57
2018-12-10T06:07:01.209Z,1.70
2018-12-10T06:09:29.641Z,1.40
2018-12-10T06:11:58.123Z,1.53
2018-12-10T06:14:26.540Z,1.57
2018-12-10T06:16:55.000Z,1.50
2018-12-10T06:19:23.456Z,2.00
2018-12-10T06:21:51.910Z,1.50
2018-12-10T06:24:20.366Z,1.50
2018-12-10T06:26:48.855Z,2.23
2018-12-10T06:29:17.422Z,2.00
2018-12-10T06:31:45.856Z,1.37
2018-12-10T06:34:14.350Z,1.30
2018-12-10T06:36:42.814Z,1.67
2018-12-10T06:39:11.288Z,1.27
2018-12-10T06:41:39.760Z,1.53
2018-12-10T06:44:08.168Z,1.33
2018-12-10T06:46:36.645Z,1.60
2018-12-10T06:49:05.090Z,1.30
2018-12-10T06:51:33.516Z,1.53
2018-12-10T06:54:02.035Z,1.20
2018-12-10T06:56:31.234Z,0.93
2018-12-10T06:58:59.688Z,1.27
2018-12-10T07:01:28.105Z,1.33
2018-12-10T07:03:56.636Z,1.57
2018-12-10T07:06:25.189Z,1.43
2018-12-10T07:08:53.634Z,1.30
2018-12-10T07:11:22.097Z,1.33
2018-12-10T07:13:50.553Z,1.47
2018-12-10T07:16:18.971Z,2.67
2018-12-10T07:18:47.422Z,1.60
2018-12-10T07:21:15.934Z,0.93
2018-12-10T07:23:44.399Z,1.90
2018-12-10T07:26:12.818Z,1.10
2018-12-10T07:28:41.778Z,2.03
2018-12-10T07:31:10.184Z,2.10
2018-12-10T07:33:38.657Z,1.53
2018-12-10T07:36:07.107Z,1.70
2018-12-10T07:38:35.565Z,1.63
2018-12-10T07:41:04.051Z,1.87
2018-12-10T07:43:32.491Z,1.40
2018-12-10T07:46:00.952Z,1.67
2018-12-10T07:48:29.409Z,1.60
2018-12-10T07:50:57.842Z,1.70
2018-12-10T07:53:26.265Z,1.87
2018-12-10T07:55:55.089Z,2.73
2018-12-10T07:58:23.668Z,2.00
2018-12-10T08:00:52.161Z,1.80
2018-12-10T08:03:20.710Z,1.43
2018-12-10T08:05:49.165Z,1.60
2018-12-10T08:08:17.588Z,1.60
2018-12-10T08:10:46.776Z,2.10
2018-12-10T08:13:15.848Z,1.80
2018-12-10T08:15:44.312Z,1.90
2018-12-10T08:18:12.784Z,1.50
2018-12-10T08:20:41.198Z,1.67
2018-12-10T08:23:09.626Z,1.90
2018-12-10T08:25:38.136Z,1.77
2018-12-10T08:28:06.560Z,4.00
2018-12-10T08:30:35.006Z,1.80
2018-12-10T08:33:04.322Z,1.70
2018-12-10T08:37:53.093Z,2.50
2018-12-10T08:38:03.310Z,1.70
2018-12-10T08:40:32.330Z,2.10
2018-12-10T08:43:00.790Z,2.13
2018-12-10T08:45:29.339Z,1.80
2018-12-10T08:47:57.906Z,1.93
2018-12-10T08:50:26.356Z,1.43
2018-12-10T08:52:54.836Z,2.70
2018-12-10T08:55:23.251Z,1.20
2018-12-10T08:57:51.780Z,2.47
2018-12-10T09:00:20.244Z,1.80
2018-12-10T09:02:48.670Z,2.00
2018-12-10T09:05:17.129Z,2.10
2018-12-10T09:07:45.545Z,1.60
2018-12-10T09:10:13.983Z,1.87
2018-12-10T09:12:46.991Z,1.70
2018-12-10T09:15:12.944Z,2.50
2018-12-10T09:17:41.435Z,2.27
2018-12-10T09:20:09.857Z,2.23
2018-12-10T09:22:38.309Z,2.50
2018-12-10T09:25:06.864Z,2.87
2018-12-10T09:27:35.278Z,3.40
2018-12-10T09:30:03.713Z,3.07
2018-12-10T09:32:32.835Z,2.40
2018-12-10T09:35:01.257Z,4.43
2018-12-10T09:37:29.738Z,3.80
2018-12-10T09:39:58.156Z,2.10
2018-12-10T09:42:26.583Z,2.23
2018-12-10T09:44:55.251Z,2.63
2018-12-10T09:47:23.927Z,1.83
2018-12-10T09:49:52.369Z,2.20
2018-12-10T09:52:20.895Z,2.60
2018-12-10T09:54:49.337Z,1.90
2018-12-10T09:57:17.759Z,2.67
2018-12-10T09:59:46.264Z,1.70
2018-12-10T10:02:14.755Z,2.37
2018-12-10T10:04:43.285Z,1.93
2018-12-10T10:07:11.761Z,2.07
2018-12-10T10:09:40.174Z,1.90
2018-12-10T10:12:08.553Z,2.23
2018-12-10T10:14:37.018Z,1.90
2018-12-10T10:17:05.482Z,1.87
2018-12-10T10:19:33.925Z,1.83
2018-12-10T10:22:02.367Z,1.77
2018-12-10T10:24:30.800Z,2.50
2018-12-10T10:26:59.192Z,1.80
2018-12-10T10:29:28.440Z,1.40
2018-12-10T10:31:56.878Z,1.67
2018-12-10T10:34:25.337Z,1.97
2018-12-10T10:36:53.804Z,1.40
2018-12-10T10:39:22.237Z,1.67
2018-12-10T10:41:50.794Z,1.27
2018-12-10T10:44:19.243Z,2.07
2018-12-10T10:46:47.658Z,1.20
2018-12-10T10:49:16.054Z,1.27
2018-12-10T10:51:44.511Z,1.30
2018-12-10T10:54:12.921Z,2.00
2018-12-10T10:56:41.343Z,1.33
2018-12-10T10:59:09.835Z,1.30
2018-12-10T11:01:43.781Z,1.40
2018-12-10T11:04:12.284Z,0.90
2018-12-10T11:06:40.826Z,0.63
2018-12-10T11:09:15.325Z,0.90
2018-12-10T11:11:39.760Z,2.07
2018-12-10T11:14:08.181Z,1.27
2018-12-10T11:16:36.611Z,1.40
2018-12-10T11:19:05.077Z,1.13
2018-12-10T11:21:33.493Z,0.93
2018-12-10T11:24:02.027Z,1.70
2018-12-10T11:26:30.487Z,0.93
2018-12-10T11:28:58.942Z,0.77
2018-12-10T11:31:27.389Z,1.30
2018-12-10T11:33:56.049Z,1.10
2018-12-10T11:36:24.570Z,1.40
2018-12-10T11:38:57.935Z,1.00
2018-12-10T11:41:23.432Z,1.20
2018-12-10T11:43:51.920Z,0.80
2018-12-10T11:46:20.300Z,0.90
2018-12-10T11:48:48.768Z,1.30
2018-12-10T11:51:17.226Z,1.40
2018-12-10T11:53:45.711Z,1.07
2018-12-10T11:56:14.216Z,1.00
2018-12-10T11:58:42.670Z,1.00
2018-12-10T12:01:11.127Z,1.27
2018-12-10T12:03:39.554Z,0.80
2018-12-10T12:06:07.981Z,1.47
2018-12-10T12:08:36.467Z,1.17
2018-12-10T12:11:04.896Z,0.77
2018-12-10T12:13:33.327Z,1.13
2018-12-10T12:16:01.739Z,1.60
2018-12-10T12:18:30.211Z,1.93
2018-12-10T12:20:58.696Z,1.50
2018-12-10T12:23:27.303Z,1.07
2018-12-10T12:25:55.813Z,2.93
2018-12-10T12:28:24.254Z,1.23
2018-12-10T12:30:52.716Z,2.57
2018-12-10T12:33:21.182Z,1.20
2018-12-10T12:35:49.593Z,0.90
2018-12-10T12:38:18.015Z,1.10
2018-12-10T12:40:46.567Z,1.23
2018-12-10T12:43:16.078Z,1.27
2018-12-10T12:45:45.005Z,1.30
2018-12-10T12:48:13.420Z,1.40
2018-12-10T12:50:41.949Z,1.53
2018-12-10T12:53:10.424Z,1.73
2018-12-10T12:55:39.043Z,2.30
2018-12-10T12:58:07.512Z,1.70
2018-12-10T13:00:41.832Z,1.30
2018-12-10T13:03:06.396Z,2.00
2018-12-10T13:05:34.942Z,1.50
2018-12-10T13:08:03.400Z,3.00
2018-12-10T13:10:31.844Z,1.10
2018-12-10T13:13:00.293Z,1.40
2018-12-10T13:15:28.740Z,1.40
2018-12-10T13:17:57.214Z,1.70
2018-12-10T13:20:25.636Z,1.60
2018-12-10T13:22:54.069Z,0.93
2018-12-10T13:25:22.577Z,1.47
2018-12-10T13:27:51.044Z,1.60
2018-12-10T13:30:19.606Z,1.70
2018-12-10T13:32:48.138Z,0.93
2018-12-10T13:35:16.576Z,1.80
2018-12-10T13:37:45.965Z,1.57
2018-12-10T13:40:14.742Z,1.10
2018-12-10T13:42:43.170Z,1.23
2018-12-10T13:45:11.685Z,1.53
2018-12-10T13:47:40.801Z,1.50
2018-12-10T13:50:09.249Z,1.43
2018-12-10T13:52:37.683Z,1.63
2018-12-10T13:55:06.263Z,1.30
2018-12-10T13:57:34.687Z,1.43
2018-12-10T14:00:03.187Z,0.80
2018-12-10T14:02:31.731Z,1.53
2018-12-10T14:05:06.805Z,1.20
2018-12-10T14:07:35.395Z,1.50
2018-12-10T14:10:03.827Z,1.47
2018-12-10T14:12:32.227Z,1.67
2018-12-10T14:15:00.683Z,1.33
2018-12-10T14:17:29.157Z,1.67
2018-12-10T14:19:57.606Z,2.00
2018-12-10T14:22:26.102Z,1.37
2018-12-10T14:24:54.528Z,1.40
2018-12-10T14:27:22.958Z,2.80
2018-12-10T14:29:51.459Z,1.60
2018-12-10T14:32:19.891Z,1.20
2018-12-10T14:34:48.405Z,1.20
2018-12-10T14:37:16.857Z,1.30
2018-12-10T14:39:45.371Z,0.80
2018-12-10T14:42:21.053Z,1.50
2018-12-10T14:44:49.610Z,1.33
2018-12-10T14:47:18.050Z,1.00
2018-12-10T14:49:46.666Z,1.63
2018-12-10T14:52:15.108Z,1.43
2018-12-10T14:54:43.517Z,1.07
2018-12-10T14:57:12.004Z,1.70
2018-12-10T14:59:40.430Z,1.60
2018-12-10T15:02:08.861Z,1.87
2018-12-10T15:04:37.295Z,2.07
2018-12-10T15:07:05.725Z,1.60
2018-12-10T15:09:34.111Z,2.00
2018-12-10T15:12:02.586Z,1.90
2018-12-10T15:14:31.161Z,2.50
2018-12-10T15:16:59.589Z,1.70
2018-12-10T15:19:28.110Z,1.33
2018-12-10T15:21:56.549Z,1.63
2018-12-10T15:24:24.995Z,1.67
2018-12-10T15:26:53.501Z,1.10
2018-12-10T15:29:22.059Z,1.37
2018-12-10T15:31:51.319Z,1.17
2018-12-10T15:34:19.875Z,1.10
2018-12-10T15:36:48.359Z,1.77
2018-12-10T15:39:16.793Z,2.57
2018-12-10T15:41:45.320Z,1.20
2018-12-10T15:44:13.860Z,1.20
2018-12-10T15:46:42.366Z,1.40
2018-12-10T15:49:10.802Z,1.33
2018-12-10T15:51:39.198Z,1.80
2018-12-10T15:54:07.608Z,1.90
2018-12-10T15:56:36.042Z,1.37
2018-12-10T15:59:04.496Z,1.43
2018-12-10T16:01:32.919Z,1.57
2018-12-10T16:04:01.424Z,1.90
2018-12-10T16:06:29.919Z,1.37
2018-12-10T16:08:58.356Z,1.77
2018-12-10T16:11:26.818Z,1.27
2018-12-10T16:13:55.305Z,1.50
2018-12-10T16:16:23.766Z,1.77
2018-12-10T16:18:52.197Z,1.23
2018-12-10T16:21:20.631Z,1.80
2018-12-10T16:23:49.048Z,1.67
2018-12-10T16:26:17.577Z,1.77
2018-12-10T16:28:46.297Z,1.50
2018-12-10T16:31:14.794Z,1.47
2018-12-10T16:33:43.265Z,2.23
2018-12-10T16:36:12.726Z,1.90
2018-12-10T16:38:41.329Z,1.47
2018-12-10T16:41:09.758Z,1.50
2018-12-10T16:43:38.215Z,1.83
2018-12-10T16:46:06.653Z,1.43
2018-12-10T16:48:35.137Z,1.60
2018-12-10T16:51:03.588Z,1.33
2018-12-10T16:53:32.102Z,1.67
2018-12-10T16:56:00.642Z,1.47
2018-12-10T16:58:29.114Z,1.20
2018-12-10T17:00:57.577Z,1.40
2018-12-10T17:03:26.096Z,1.40
2018-12-10T17:05:54.539Z,1.60
2018-12-10T17:08:23.005Z,1.50
2018-12-10T17:10:51.535Z,1.60
2018-12-10T17:13:20.071Z,1.80
2018-12-10T17:15:48.471Z,1.80
2018-12-10T17:18:16.970Z,2.07
2018-12-10T17:20:45.509Z,1.37
2018-12-10T17:23:13.939Z,3.43
2018-12-10T17:25:42.399Z,2.13
2018-12-10T17:28:11.123Z,1.80
2018-12-10T17:30:39.571Z,1.47
2018-12-10T17:33:08.052Z,1.60
2018-12-10T17:35:36.535Z,1.83
2018-12-10T17:38:05.124Z,2.87
2018-12-10T17:40:34.323Z,2.07
2018-12-10T17:43:02.790Z,2.50
2018-12-10T17:45:31.302Z,2.30
2018-12-10T17:47:59.855Z,3.03
2018-12-10T17:50:28.355Z,2.47
2018-12-10T17:52:56.841Z,2.30
2018-12-10T17:55:25.328Z,2.47
2018-12-10T17:57:55.822Z,1.83
2018-12-10T18:00:25.357Z,2.13
2018-12-10T18:02:53.832Z,2.13
2018-12-10T18:05:23.498Z,2.03
2018-12-10T18:07:52.090Z,2.00
2018-12-10T18:10:21.014Z,1.80
2018-12-10T18:12:49.530Z,1.73
2018-12-10T18:15:18.057Z,2.70
2018-12-10T18:17:46.570Z,2.03
2018-12-10T18:20:15.048Z,1.70
2018-12-10T18:22:43.579Z,2.10
2018-12-10T18:25:12.131Z,1.93
2018-12-10T18:27:40.636Z,2.10
2018-12-10T18:30:11.211Z,2.30
2018-12-10T18:32:39.726Z,2.23
2018-12-10T18:35:09.597Z,2.33
2018-12-10T18:37:38.294Z,3.13
2018-12-10T18:40:10.737Z,3.23
2018-12-10T18:42:39.295Z,2.33
2018-12-10T18:45:11.282Z,2.07
2018-12-10T18:47:39.773Z,2.83
2018-12-10T18:50:08.300Z,1.93
2018-12-10T18:52:36.756Z,2.17
2018-12-10T18:55:07.051Z,1.93
2018-12-10T18:57:35.469Z,1.90
2018-12-10T19:00:05.810Z,1.70
2018-12-10T19:02:34.335Z,2.80
2018-12-10T19:05:03.433Z,1.80
2018-12-10T19:07:32.007Z,2.17
2018-12-10T19:10:02.469Z,2.03
2018-12-10T19:12:31.727Z,1.80
2018-12-10T19:15:00.350Z,2.20
2018-12-10T19:17:28.904Z,1.93
2018-12-10T19:19:57.408Z,2.40
2018-12-10T19:22:25.960Z,1.83
2018-12-10T19:24:55.168Z,1.80
2018-12-10T19:27:23.624Z,2.03
2018-12-10T19:29:52.098Z,1.77
2018-12-10T19:32:20.565Z,2.10
2018-12-10T19:34:49.782Z,1.97
2018-12-10T19:37:18.358Z,2.53
2018-12-10T19:39:46.844Z,2.70
2018-12-10T19:42:15.348Z,2.13
2018-12-10T19:44:43.979Z,1.80
2018-12-10T19:47:12.430Z,2.03
2018-12-10T19:49:40.944Z,2.13
2018-12-10T19:52:09.522Z,2.10
2018-12-10T19:54:38.020Z,2.80
2018-12-10T19:57:06.565Z,2.73
2018-12-10T19:59:35.065Z,2.33
2018-12-10T20:02:04.076Z,2.33
2018-12-10T20:04:32.656Z,2.73
2018-12-10T20:07:07.062Z,2.10
2018-12-10T20:09:35.907Z,2.30
2018-12-10T20:12:04.671Z,2.00
2018-12-10T20:14:33.181Z,2.80
2018-12-10T20:17:01.619Z,2.57
2018-12-10T20:19:30.971Z,3.00
2018-12-10T20:21:59.475Z,2.53
2018-12-10T20:24:28.043Z,2.33
2018-12-10T20:26:56.526Z,2.13
2018-12-10T20:29:25.038Z,2.73
2018-12-10T20:31:53.653Z,2.83
2018-12-10T20:34:22.101Z,2.57
2018-12-10T20:36:50.673Z,2.70
2018-12-10T20:39:19.275Z,2.27
2018-12-10T20:41:47.938Z,3.00
2018-12-10T20:44:17.789Z,2.90
2018-12-10T20:46:46.301Z,2.57
2018-12-10T20:49:14.731Z,2.53
2018-12-10T20:51:43.388Z,2.60
2018-12-10T20:54:11.956Z,2.47
2018-12-10T20:56:40.720Z,2.40
2018-12-10T20:59:09.432Z,2.63
2018-12-10T21:01:38.068Z,4.10
2018-12-10T21:04:06.694Z,3.30
2018-12-10T21:06:36.970Z,1.90
2018-12-10T21:09:08.089Z,2.30
2018-12-10T21:11:36.596Z,2.43
2018-12-10T21:14:05.088Z,2.70
2018-12-10T21:16:33.582Z,2.50
2018-12-10T21:19:02.363Z,1.90
2018-12-10T21:21:32.202Z,2.33
2018-12-10T21:24:00.880Z,2.13
2018-12-10T21:26:29.532Z,1.77
2018-12-10T21:28:58.134Z,2.20
2018-12-10T21:31:26.609Z,1.80
2018-12-10T21:33:55.176Z,2.63
2018-12-10T21:36:23.716Z,2.77
2018-12-10T21:38:52.189Z,2.97
2018-12-10T21:41:20.694Z,3.43
2018-12-10T21:43:49.197Z,3.13
2018-12-10T21:46:17.701Z,2.13
2018-12-10T21:48:47.093Z,2.77
2018-12-10T21:51:16.229Z,3.33
2018-12-10T21:53:44.746Z,2.43
2018-12-10T21:56:13.531Z,3.03
2018-12-10T21:58:41.999Z,3.30
2018-12-10T22:01:10.420Z,2.67
2018-12-10T22:03:38.941Z,3.57
2018-12-10T22:06:07.399Z,3.20
2018-12-10T22:08:35.904Z,3.23
2018-12-10T22:11:04.343Z,3.47
2018-12-10T22:13:32.811Z,2.47
2018-12-10T22:16:01.269Z,2.10
2018-12-10T22:18:29.760Z,1.83
2018-12-10T22:20:59.100Z,1.80
2018-12-10T22:23:27.621Z,2.60
2018-12-10T22:25:56.143Z,2.43
2018-12-10T22:28:24.765Z,2.30
2018-12-10T22:30:53.218Z,3.30
2018-12-10T22:33:21.720Z,2.83
2018-12-10T22:35:50.169Z,2.10
2018-12-10T22:38:18.783Z,2.43
2018-12-10T22:40:47.222Z,2.20
2018-12-10T22:43:15.690Z,2.37
2018-12-10T22:45:44.137Z,2.20
2018-12-10T22:48:12.644Z,2.17
2018-12-10T22:50:41.058Z,2.60
2018-12-10T22:53:09.493Z,2.47
2018-12-10T22:55:38.093Z,2.50
2018-12-10T22:58:06.996Z,2.87
2018-12-10T23:00:40.696Z,3.07
2018-12-10T23:03:09.699Z,2.70
2018-12-10T23:05:38.126Z,2.90
2018-12-10T23:08:06.597Z,3.20
2018-12-10T23:10:35.045Z,3.30
2018-12-10T23:13:04.235Z,3.70
2018-12-10T23:15:32.790Z,3.20
2018-12-10T23:18:01.299Z,3.20
2018-12-10T23:20:29.738Z,3.73
2018-12-10T23:22:58.179Z,2.97
2018-12-10T23:25:26.661Z,3.73
2018-12-10T23:27:55.099Z,2.70
2018-12-10T23:30:23.570Z,3.57
2018-12-10T23:32:52.455Z,3.17
2018-12-10T23:35:20.973Z,2.70
2018-12-10T23:37:49.449Z,3.30
2018-12-10T23:40:17.891Z,2.53
2018-12-10T23:42:51.746Z,3.20
2018-12-10T23:45:20.278Z,3.83
2018-12-10T23:47:48.825Z,3.03
2018-12-10T23:50:17.498Z,3.00
2018-12-10T23:52:45.958Z,2.80
2018-12-10T23:55:14.429Z,2.60
2018-12-10T23:57:42.942Z,3.03
